createdAt,value
2022-11-29T00:01:37.019Z,2.71
2022-11-29T00:04:05.610Z,2.73
2022-11-29T00:06:35.254Z,2.72
2022-11-29T00:09:07.290Z,2.70
2022-11-29T00:11:55.123Z,2.69
2022-11-29T00:14:24.207Z,2.71
2022-11-29T00:16:53.645Z,2.73
2022-11-29T00:19:22.053Z,2.69
2022-11-29T00:21:50.026Z,2.70
2022-11-29T00:24:19.794Z,2.71
2022-11-29T00:26:48.014Z,2.69
2022-11-29T00:29:16.161Z,2.68
2022-11-29T00:31:44.999Z,2.65
2022-11-29T00:34:13.531Z,2.62
2022-11-29T00:36:41.925Z,2.62
2022-11-29T00:39:11.721Z,2.65
2022-11-29T00:41:41.463Z,2.65
2022-11-29T00:44:12.831Z,2.64
2022-11-29T00:46:43.350Z,2.63
2022-11-29T00:49:11.373Z,2.65
2022-11-29T00:51:39.488Z,2.62
2022-11-29T00:54:07.530Z,2.64
2022-11-29T00:56:35.470Z,2.64
2022-11-29T00:59:04.842Z,2.64
2022-11-29T01:01:32.906Z,2.62
2022-11-29T01:04:01.456Z,2.59
2022-11-29T01:06:29.691Z,2.63
2022-11-29T01:08:57.683Z,2.62
2022-11-29T01:11:27.271Z,2.63
2022-11-29T01:13:57.680Z,2.63
2022-11-29T01:16:27.654Z,2.59
2022-11-29T01:18:55.685Z,2.61
2022-11-29T01:21:25.483Z,2.59
2022-11-29T01:23:54.736Z,2.59
2022-11-29T01:26:25.340Z,2.63
2022-11-29T01:28:55.862Z,2.65
2022-11-29T01:31:26.004Z,2.65
2022-11-29T01:33:56.084Z,2.62
2022-11-29T01:36:25.276Z,2.60
2022-11-29T01:38:53.534Z,2.53
2022-11-29T01:41:23.329Z,2.59
2022-11-29T01:44:01.411Z,2.56
2022-11-29T01:46:31.389Z,2.55
2022-11-29T01:49:04.746Z,2.57
2022-11-29T01:51:35.320Z,2.57
2022-11-29T01:54:03.823Z,2.59
2022-11-29T01:56:34.474Z,2.62
2022-11-29T01:59:04.209Z,2.57
2022-11-29T02:01:34.704Z,2.59
2022-11-29T02:04:04.842Z,2.58
2022-11-29T02:06:34.078Z,2.60
2022-11-29T02:09:02.210Z,2.59
2022-11-29T02:11:53.170Z,2.61
2022-11-29T02:14:38.098Z,2.60
2022-11-29T02:17:16.484Z,2.60
2022-11-29T02:20:08.536Z,2.54
2022-11-29T02:22:42.191Z,2.65
2022-11-29T02:25:41.092Z,2.64
2022-11-29T02:28:41.655Z,2.63
2022-11-29T02:31:34.915Z,2.61
2022-11-29T02:34:27.159Z,2.56
2022-11-29T02:37:13.885Z,2.57
2022-11-29T02:39:58.369Z,2.51
2022-11-29T02:42:56.176Z,2.51
2022-11-29T02:45:59.652Z,2.47
2022-11-29T02:48:43.775Z,2.47
2022-11-29T02:51:21.946Z,2.56
2022-11-29T02:53:57.442Z,2.53
2022-11-29T02:56:32.858Z,2.51
2022-11-29T02:59:06.681Z,2.55
2022-11-29T03:01:41.427Z,2.48
2022-11-29T03:04:19.789Z,2.44
2022-11-29T03:06:56.506Z,2.45
2022-11-29T03:09:33.472Z,2.48
2022-11-29T03:12:10.102Z,2.46
2022-11-29T03:14:55.377Z,2.47
2022-11-29T03:17:33.127Z,2.49
2022-11-29T03:20:30.084Z,2.44
2022-11-29T03:23:14.829Z,2.50
2022-11-29T03:25:47.746Z,2.51
2022-11-29T03:28:20.521Z,2.50
2022-11-29T03:30:53.781Z,2.51
2022-11-29T03:33:29.320Z,2.46
2022-11-29T03:38:46.551Z,2.49
2022-11-29T03:41:21.316Z,2.51
2022-11-29T03:43:57.509Z,2.49
2022-11-29T03:46:33.004Z,2.51
2022-11-29T03:49:04.480Z,2.47
2022-11-29T03:51:45.365Z,2.49
2022-11-29T03:54:22.383Z,2.48
2022-11-29T03:56:51.029Z,2.45
2022-11-29T03:59:36.992Z,2.53
2022-11-29T04:02:44.655Z,2.51
2022-11-29T04:05:37.558Z,2.52
2022-11-29T04:08:40.741Z,2.48
2022-11-29T04:11:54.832Z,2.53
2022-11-29T04:14:34.900Z,2.52
2022-11-29T04:17:35.685Z,2.50
2022-11-29T04:20:39.174Z,2.52
2022-11-29T04:23:33.696Z,2.52
2022-11-29T04:26:34.826Z,2.52
2022-11-29T04:29:16.466Z,2.52
2022-11-29T04:32:04.270Z,2.50
2022-11-29T04:35:14.592Z,2.52
2022-11-29T04:38:05.741Z,2.50
2022-11-29T04:40:52.887Z,2.48
2022-11-29T04:43:43.230Z,2.53
2022-11-29T04:46:38.149Z,2.47
2022-11-29T04:49:22.121Z,2.47
2022-11-29T04:52:09.217Z,2.49
2022-11-29T04:54:44.300Z,2.46
2022-11-29T04:57:23.358Z,2.35
2022-11-29T05:00:01.073Z,2.39
2022-11-29T05:02:35.904Z,2.47
2022-11-29T05:05:15.183Z,2.55
2022-11-29T05:07:52.583Z,2.64
2022-11-29T05:10:30.623Z,2.77
2022-11-29T05:13:07.105Z,2.78
2022-11-29T05:16:04.522Z,2.67
2022-11-29T05:18:58.901Z,2.88
2022-11-29T05:21:39.106Z,2.69
2022-11-29T05:24:20.242Z,2.77
2022-11-29T05:26:56.251Z,3.06
2022-11-29T05:29:31.780Z,2.95
2022-11-29T05:32:23.111Z,3.10
2022-11-29T05:35:13.845Z,3.13
2022-11-29T05:37:49.935Z,3.03
2022-11-29T05:40:44.995Z,3.07
2022-11-29T05:43:32.787Z,2.92
2022-11-29T05:46:05.498Z,3.15
2022-11-29T05:48:45.151Z,3.28
2022-11-29T05:51:22.254Z,3.27
2022-11-29T05:54:00.343Z,3.17
2022-11-29T05:56:41.695Z,2.92
2022-11-29T05:59:13.888Z,2.84
2022-11-29T06:01:53.010Z,2.80
2022-11-29T06:04:28.641Z,2.87
2022-11-29T06:07:05.424Z,2.92
2022-11-29T06:09:39.851Z,2.92
2022-11-29T06:12:19.531Z,2.85
2022-11-29T06:15:17.186Z,3.08
2022-11-29T06:18:01.446Z,2.94
2022-11-29T06:20:52.974Z,2.78
2022-11-29T06:23:48.348Z,2.74
2022-11-29T06:26:30.846Z,2.59
2022-11-29T06:29:06.592Z,2.57
2022-11-29T06:31:40.546Z,2.53
2022-11-29T06:34:15.444Z,2.47
2022-11-29T06:36:48.880Z,2.49
2022-11-29T06:39:19.164Z,2.49
2022-11-29T06:41:47.186Z,2.45
2022-11-29T06:44:15.829Z,2.52
2022-11-29T06:46:47.783Z,2.47
2022-11-29T06:49:23.816Z,2.45
2022-11-29T06:52:01.770Z,2.46
2022-11-29T06:54:51.350Z,2.38
2022-11-29T06:57:25.731Z,2.51
2022-11-29T07:00:04.709Z,2.46
2022-11-29T07:02:58.500Z,2.45
2022-11-29T07:05:29.856Z,2.48
2022-11-29T07:08:01.828Z,2.48
2022-11-29T07:10:34.217Z,2.44
2022-11-29T07:13:02.755Z,2.52
2022-11-29T07:15:31.423Z,2.47
2022-11-29T07:18:19.055Z,2.39
2022-11-29T07:20:59.932Z,2.45
2022-11-29T07:23:35.971Z,2.39
2022-11-29T07:26:17.984Z,2.44
2022-11-29T07:29:03.858Z,2.34
2022-11-29T07:31:41.013Z,2.40
2022-11-29T07:34:18.227Z,2.41
2022-11-29T07:36:55.217Z,2.41
2022-11-29T07:39:36.303Z,2.45
2022-11-29T07:42:14.307Z,2.44
2022-11-29T07:44:53.353Z,2.43
2022-11-29T07:47:21.306Z,2.45
2022-11-29T07:49:49.265Z,2.45
2022-11-29T07:52:18.133Z,2.42
2022-11-29T07:54:46.373Z,2.42
2022-11-29T07:57:15.975Z,2.41
2022-11-29T07:59:44.216Z,2.43
2022-11-29T08:02:12.746Z,2.45
2022-11-29T08:04:44.707Z,2.50
2022-11-29T08:07:12.945Z,2.52
2022-11-29T08:09:40.863Z,2.48
2022-11-29T08:12:08.881Z,2.50
2022-11-29T08:14:38.276Z,2.52
2022-11-29T08:17:06.394Z,2.55
2022-11-29T08:19:34.484Z,2.57
2022-11-29T08:22:02.482Z,2.60
2022-11-29T08:24:30.477Z,2.65
2022-11-29T08:26:58.501Z,2.65
2022-11-29T08:29:26.500Z,2.68
2022-11-29T08:31:56.014Z,2.66
2022-11-29T08:34:25.438Z,2.71
2022-11-29T08:36:56.415Z,2.71
2022-11-29T08:39:25.041Z,2.70
2022-11-29T08:41:53.025Z,2.70
2022-11-29T08:44:20.979Z,2.78
2022-11-29T08:47:06.491Z,2.74
2022-11-29T08:49:35.835Z,2.77
2022-11-29T08:52:21.303Z,2.80
2022-11-29T08:54:49.249Z,2.77
2022-11-29T08:57:39.395Z,2.76
2022-11-29T09:00:07.263Z,2.76
2022-11-29T09:02:36.727Z,2.78
2022-11-29T09:05:07.472Z,2.73
2022-11-29T09:07:35.754Z,2.74
2022-11-29T09:10:05.542Z,2.75
2022-11-29T09:12:33.642Z,2.79
2022-11-29T09:15:01.658Z,2.88
2022-11-29T09:17:29.680Z,2.82
2022-11-29T09:19:57.623Z,2.92
2022-11-29T09:22:26.951Z,2.85
2022-11-29T09:24:54.945Z,2.86
2022-11-29T09:27:22.908Z,2.82
2022-11-29T09:29:50.834Z,2.83
2022-11-29T09:32:18.825Z,2.83
2022-11-29T09:34:47.137Z,2.94
2022-11-29T09:37:15.250Z,2.92
2022-11-29T09:39:44.570Z,2.92
2022-11-29T09:42:23.902Z,2.86
2022-11-29T09:45:02.064Z,2.92
2022-11-29T09:47:49.146Z,3.04
2022-11-29T09:50:29.227Z,3.00
2022-11-29T09:53:11.119Z,2.92
2022-11-29T09:56:05.759Z,3.00
2022-11-29T09:58:40.496Z,2.97
2022-11-29T10:01:14.265Z,3.03
2022-11-29T10:03:46.979Z,3.07
2022-11-29T10:06:22.750Z,3.11
2022-11-29T10:08:57.167Z,3.06
2022-11-29T10:11:31.327Z,3.05
2022-11-29T10:14:03.996Z,3.09
2022-11-29T10:16:42.318Z,3.06
2022-11-29T10:19:18.395Z,3.07
2022-11-29T10:21:55.240Z,3.07
2022-11-29T10:24:25.745Z,3.05
2022-11-29T10:26:55.215Z,3.07
2022-11-29T10:29:24.360Z,3.01
2022-11-29T10:31:56.743Z,3.00
2022-11-29T10:34:27.477Z,3.03
2022-11-29T10:36:59.406Z,3.04
2022-11-29T10:39:35.689Z,3.02
2022-11-29T10:42:06.499Z,3.04
2022-11-29T10:44:35.015Z,3.07
2022-11-29T10:47:10.787Z,3.15
2022-11-29T10:49:40.295Z,3.13
2022-11-29T10:52:19.239Z,3.15
2022-11-29T10:54:48.453Z,3.17
2022-11-29T10:57:20.930Z,3.14
2022-11-29T11:00:01.062Z,3.18
2022-11-29T11:02:29.691Z,3.26
2022-11-29T11:04:59.116Z,3.23
2022-11-29T11:07:31.103Z,3.22
2022-11-29T11:10:00.139Z,3.27
2022-11-29T11:12:32.302Z,3.30
2022-11-29T11:15:17.200Z,3.32
2022-11-29T11:17:58.605Z,3.31
2022-11-29T11:20:30.089Z,3.26
2022-11-29T11:23:01.396Z,3.35
2022-11-29T11:25:31.297Z,3.31
2022-11-29T11:28:15.316Z,3.30
2022-11-29T11:30:51.402Z,3.34
2022-11-29T11:33:21.776Z,3.36
2022-11-29T11:36:05.216Z,3.35
2022-11-29T11:38:34.291Z,3.32
2022-11-29T11:41:06.434Z,3.32
2022-11-29T11:43:36.012Z,3.36
2022-11-29T11:46:06.770Z,3.41
2022-11-29T11:48:36.550Z,3.42
2022-11-29T11:51:04.799Z,3.40
2022-11-29T11:53:36.648Z,3.41
2022-11-29T11:56:06.839Z,3.30
2022-11-29T11:58:39.200Z,3.39
2022-11-29T12:01:17.709Z,3.43
2022-11-29T12:03:51.693Z,3.41
2022-11-29T12:06:36.915Z,3.35
2022-11-29T12:09:10.952Z,3.32
2022-11-29T12:11:45.088Z,3.42
2022-11-29T12:14:25.138Z,3.37
2022-11-29T12:17:03.462Z,3.35
2022-11-29T12:19:40.603Z,3.35
2022-11-29T12:22:17.389Z,3.37
2022-11-29T12:24:53.594Z,3.47
2022-11-29T12:27:21.614Z,3.51
2022-11-29T12:29:50.980Z,3.55
2022-11-29T12:32:33.947Z,3.45
2022-11-29T12:35:20.795Z,3.45
2022-11-29T12:37:57.438Z,3.45
2022-11-29T12:40:34.856Z,3.51
2022-11-29T12:43:12.696Z,3.45
2022-11-29T12:45:50.101Z,3.18
2022-11-29T12:48:29.931Z,3.42
2022-11-29T12:51:05.940Z,3.39
2022-11-29T12:53:48.445Z,3.40
2022-11-29T12:56:24.395Z,3.41
2022-11-29T12:59:02.150Z,3.30
2022-11-29T13:01:40.664Z,3.25
2022-11-29T13:04:17.105Z,3.32
2022-11-29T13:06:53.953Z,3.34
2022-11-29T13:09:51.662Z,3.32
2022-11-29T13:12:28.416Z,3.34
2022-11-29T13:15:02.736Z,3.36
2022-11-29T13:17:40.969Z,3.31
2022-11-29T13:20:23.928Z,3.35
2022-11-29T13:22:58.468Z,3.33
2022-11-29T13:25:31.825Z,3.28
2022-11-29T13:28:02.841Z,3.33
2022-11-29T13:30:31.326Z,3.35
2022-11-29T13:33:06.943Z,3.26
2022-11-29T13:35:43.120Z,3.27
2022-11-29T13:38:18.067Z,3.20
2022-11-29T13:40:56.005Z,3.21
2022-11-29T13:43:31.073Z,3.23
2022-11-29T13:46:08.694Z,3.25
2022-11-29T13:48:48.811Z,3.28
2022-11-29T13:51:27.239Z,3.34
2022-11-29T13:53:57.171Z,3.29
2022-11-29T13:56:32.874Z,3.27
2022-11-29T13:59:04.567Z,3.21
2022-11-29T14:01:44.834Z,3.19
2022-11-29T14:04:26.331Z,3.18
2022-11-29T14:07:05.130Z,3.23
2022-11-29T14:09:40.700Z,3.19
2022-11-29T14:12:26.958Z,3.19
2022-11-29T14:14:59.283Z,3.21
2022-11-29T14:17:48.565Z,3.06
2022-11-29T14:20:49.056Z,3.17
2022-11-29T14:23:32.445Z,3.15
2022-11-29T14:26:28.820Z,3.17
2022-11-29T14:28:58.212Z,3.18
2022-11-29T14:31:56.103Z,3.18
2022-11-29T14:34:43.256Z,3.05
2022-11-29T14:37:53.282Z,3.17
2022-11-29T14:40:30.036Z,3.17
2022-11-29T14:42:58.317Z,3.14
2022-11-29T14:45:29.606Z,3.11
2022-11-29T14:47:58.934Z,3.10
2022-11-29T14:50:33.601Z,2.98
2022-11-29T14:53:02.452Z,3.12
2022-11-29T14:55:35.555Z,3.09
2022-11-29T14:58:17.862Z,3.14
2022-11-29T15:01:10.678Z,3.15
2022-11-29T15:03:49.636Z,3.15
2022-11-29T15:06:27.118Z,3.12
2022-11-29T15:09:02.548Z,3.06
2022-11-29T15:11:41.203Z,3.02
2022-11-29T15:14:19.862Z,2.91
2022-11-29T15:17:06.639Z,3.04
2022-11-29T15:20:13.659Z,3.02
2022-11-29T15:22:48.950Z,2.99
2022-11-29T15:25:20.689Z,3.01
2022-11-29T15:27:54.910Z,3.03
2022-11-29T15:30:31.453Z,3.03
2022-11-29T15:33:00.946Z,3.02
2022-11-29T15:35:29.312Z,3.04
2022-11-29T15:37:57.642Z,2.99
2022-11-29T15:40:33.055Z,2.97
2022-11-29T15:43:14.953Z,2.99
2022-11-29T15:45:48.344Z,2.95
2022-11-29T15:48:21.890Z,2.98
2022-11-29T15:50:59.815Z,2.93
2022-11-29T15:53:32.818Z,2.98
2022-11-29T15:56:03.387Z,2.93
2022-11-29T15:58:34.843Z,2.93
2022-11-29T16:01:04.095Z,2.99
2022-11-29T16:03:35.044Z,2.98
2022-11-29T16:06:09.464Z,2.98
2022-11-29T16:08:43.151Z,2.99
2022-11-29T16:11:17.592Z,2.95
2022-11-29T16:14:05.045Z,2.99
2022-11-29T16:16:35.419Z,2.99
2022-11-29T16:19:11.579Z,2.96
2022-11-29T16:21:39.643Z,2.95
2022-11-29T16:24:20.512Z,2.97
2022-11-29T16:26:51.154Z,2.97
2022-11-29T16:29:28.255Z,2.98
2022-11-29T16:31:56.746Z,2.92
2022-11-29T16:34:28.079Z,3.01
2022-11-29T16:37:04.059Z,3.01
2022-11-29T16:39:32.551Z,3.00
2022-11-29T16:42:08.762Z,3.03
2022-11-29T16:45:12.016Z,3.02
2022-11-29T16:47:57.963Z,3.03
2022-11-29T16:50:27.385Z,3.00
2022-11-29T16:52:57.067Z,3.01
2022-11-29T16:55:25.626Z,3.03
2022-11-29T16:57:53.661Z,3.02
2022-11-29T17:00:30.474Z,3.02
2022-11-29T17:03:00.503Z,3.04
2022-11-29T17:05:28.757Z,2.99
2022-11-29T17:07:57.104Z,2.93
2022-11-29T17:10:26.648Z,2.96
2022-11-29T17:12:55.065Z,2.91
2022-11-29T17:15:23.347Z,2.95
2022-11-29T17:17:51.337Z,2.97
2022-11-29T17:20:20.733Z,2.96
2022-11-29T17:22:48.734Z,2.88
2022-11-29T17:25:16.867Z,2.91
2022-11-29T17:27:44.852Z,2.94
2022-11-29T17:30:13.991Z,2.94
2022-11-29T17:32:41.906Z,2.95
2022-11-29T17:35:10.325Z,2.94
2022-11-29T17:37:39.680Z,2.95
2022-11-29T17:40:09.282Z,2.91
2022-11-29T17:42:37.190Z,2.89
2022-11-29T17:45:05.672Z,2.91
2022-11-29T17:47:34.335Z,2.92
2022-11-29T17:50:02.321Z,2.91
2022-11-29T17:52:30.331Z,2.89
2022-11-29T17:54:59.695Z,2.93
2022-11-29T17:57:27.722Z,2.91
2022-11-29T17:59:55.779Z,2.90
2022-11-29T18:02:23.880Z,2.88
2022-11-29T18:04:51.928Z,2.86
2022-11-29T18:07:19.989Z,2.95
2022-11-29T18:09:49.043Z,2.95
2022-11-29T18:12:20.035Z,2.89
2022-11-29T18:14:50.122Z,2.90
2022-11-29T18:17:18.104Z,2.92
2022-11-29T18:19:46.416Z,2.88
2022-11-29T18:22:14.954Z,2.89
2022-11-29T18:24:44.143Z,2.91
2022-11-29T18:27:12.204Z,2.92
2022-11-29T18:29:41.627Z,2.89
2022-11-29T18:32:09.724Z,2.90
2022-11-29T18:34:37.655Z,2.95
2022-11-29T18:37:05.604Z,2.94
2022-11-29T18:39:33.592Z,2.98
2022-11-29T18:42:01.650Z,2.93
2022-11-29T18:44:30.239Z,2.91
2022-11-29T18:46:59.554Z,2.91
2022-11-29T18:49:27.600Z,2.94
2022-11-29T18:51:55.541Z,2.95
2022-11-29T18:54:23.506Z,2.92
2022-11-29T18:56:51.820Z,2.90
2022-11-29T18:59:19.861Z,2.91
2022-11-29T19:01:49.032Z,2.89
2022-11-29T19:04:20.165Z,2.89
2022-11-29T19:06:48.647Z,2.92
2022-11-29T19:09:19.196Z,2.90
2022-11-29T19:11:48.638Z,2.91
2022-11-29T19:14:16.639Z,2.89
2022-11-29T19:16:46.237Z,2.90
2022-11-29T19:19:14.602Z,2.93
2022-11-29T19:21:43.997Z,2.88
2022-11-29T19:24:17.773Z,2.88
2022-11-29T19:26:47.189Z,2.91
2022-11-29T19:29:15.584Z,2.89
2022-11-29T19:31:43.992Z,2.82
2022-11-29T19:34:12.334Z,2.86
2022-11-29T19:36:42.980Z,2.85
2022-11-29T19:39:14.307Z,2.86
2022-11-29T19:41:43.710Z,2.88
2022-11-29T19:44:12.489Z,2.84
2022-11-29T19:46:42.181Z,2.84
2022-11-29T19:49:10.539Z,2.83
2022-11-29T19:51:39.140Z,2.82
2022-11-29T19:54:08.844Z,2.81
2022-11-29T19:56:39.299Z,2.89
2022-11-29T19:59:08.827Z,2.84
2022-11-29T20:01:41.384Z,2.81
2022-11-29T20:04:11.862Z,2.86
2022-11-29T20:06:40.469Z,2.84
2022-11-29T20:09:08.578Z,2.77
2022-11-29T20:11:37.979Z,2.83
2022-11-29T20:14:07.990Z,2.86
2022-11-29T20:16:36.641Z,2.82
2022-11-29T20:19:09.604Z,2.79
2022-11-29T20:21:42.177Z,2.79
2022-11-29T20:24:11.428Z,2.78
2022-11-29T20:26:42.195Z,2.80
2022-11-29T20:29:11.155Z,2.83
2022-11-29T20:31:45.967Z,2.79
2022-11-29T20:34:17.562Z,2.83
2022-11-29T20:37:06.743Z,2.85
2022-11-29T20:39:42.691Z,2.87
2022-11-29T20:42:46.687Z,2.89
2022-11-29T20:45:16.439Z,2.85
2022-11-29T20:47:51.918Z,2.90
2022-11-29T20:50:23.694Z,2.89
2022-11-29T20:53:12.896Z,2.84
2022-11-29T20:55:46.458Z,2.85
2022-11-29T20:58:18.318Z,2.85
2022-11-29T21:00:46.489Z,2.82
2022-11-29T21:03:15.238Z,2.89
2022-11-29T21:05:43.282Z,2.84
2022-11-29T21:08:11.345Z,2.86
2022-11-29T21:10:39.436Z,2.83
2022-11-29T21:13:08.663Z,2.82
2022-11-29T21:15:38.785Z,2.80
2022-11-29T21:18:07.358Z,2.81
2022-11-29T21:20:35.709Z,2.81
2022-11-29T21:23:09.858Z,2.76
2022-11-29T21:25:45.192Z,2.76
2022-11-29T21:28:15.123Z,2.75
2022-11-29T21:30:45.499Z,2.71
2022-11-29T21:33:13.931Z,2.77
2022-11-29T21:35:42.087Z,2.74
2022-11-29T21:38:14.303Z,2.75
2022-11-29T21:40:42.365Z,2.78
2022-11-29T21:43:10.399Z,2.79
2022-11-29T21:45:38.370Z,2.73
2022-11-29T21:48:28.575Z,2.76
2022-11-29T21:50:57.596Z,2.74
2022-11-29T21:53:25.545Z,2.75
2022-11-29T21:55:57.237Z,2.74
2022-11-29T21:58:25.351Z,2.73
2022-11-29T22:00:53.441Z,2.74
2022-11-29T22:03:22.884Z,2.77
2022-11-29T22:05:50.840Z,2.76
2022-11-29T22:08:19.142Z,2.75
2022-11-29T22:10:47.129Z,2.73
2022-11-29T22:13:15.071Z,2.73
2022-11-29T22:15:43.067Z,2.69
2022-11-29T22:18:11.453Z,2.74
2022-11-29T22:20:40.793Z,2.78
2022-11-29T22:23:08.801Z,2.80
2022-11-29T22:25:36.741Z,2.80
2022-11-29T22:28:04.751Z,2.77
2022-11-29T22:30:32.711Z,2.77
2022-11-29T22:33:00.682Z,2.79
2022-11-29T22:35:28.759Z,2.75
2022-11-29T22:37:58.063Z,2.71
2022-11-29T22:40:26.060Z,2.76
2022-11-29T22:42:54.052Z,2.75
2022-11-29T22:45:22.225Z,2.74
2022-11-29T22:47:50.201Z,2.76
2022-11-29T22:50:18.208Z,2.79
2022-11-29T22:52:46.132Z,2.74
2022-11-29T22:55:15.481Z,2.75
2022-11-29T22:57:43.459Z,2.71
2022-11-29T23:00:13.579Z,2.74
2022-11-29T23:02:41.504Z,2.78
2022-11-29T23:05:09.728Z,2.73
2022-11-29T23:07:37.797Z,2.75
2022-11-29T23:10:06.666Z,2.73
2022-11-29T23:12:36.086Z,2.73
2022-11-29T23:15:04.642Z,2.74
2022-11-29T23:17:32.647Z,2.73
2022-11-29T23:20:00.648Z,2.71
2022-11-29T23:22:28.566Z,2.76
2022-11-29T23:24:56.529Z,2.77
2022-11-29T23:27:24.534Z,2.78
2022-11-29T23:29:54.116Z,2.76
2022-11-29T23:32:22.046Z,2.71
2022-11-29T23:34:50.061Z,2.73
2022-11-29T23:37:18.028Z,2.67
2022-11-29T23:39:46.031Z,2.75
2022-11-29T23:42:14.036Z,2.76
2022-11-29T23:44:41.947Z,2.71
2022-11-29T23:47:11.289Z,2.75
2022-11-29T23:49:39.884Z,2.74
2022-11-29T23:52:07.904Z,2.71
2022-11-29T23:54:35.848Z,2.77
2022-11-29T23:57:03.844Z,2.75
2022-11-29T23:59:31.827Z,2.75
